Time;durP1;ratioP1;P1;durP2;ratioP2;P2;SDS_P1;SDS_P2;PMS_P1;PMS_P2;Temp;Humidity;BMP_temperature;BMP_pressure;BME280_temperature;BME280_humidity;BME280_pressure;Samples;Min_cycle;Max_cycle;Signal;HPM_P1;HPM_P2
2023/09/05 00:00:10;;;;;;;6.75;3.95;;;15.80;99.90;;;;;;5051948;28;20454;-70
2023/09/05 00:02:38;;;;;;;5.18;4.50;;;15.80;99.90;;;;;;5069401;28;20051;-70
2023/09/05 00:05:07;;;;;;;5.93;4.15;;;15.70;99.90;;;;;;5069709;28;20063;-70
2023/09/05 00:07:36;;;;;;;7.03;4.30;;;15.70;99.90;;;;;;5051436;28;20052;-70
2023/09/05 00:10:11;;;;;;;7.72;4.47;;;15.80;99.90;;;;;;5069227;28;20132;-70
2023/09/05 00:12:40;;;;;;;6.43;4.50;;;15.90;99.90;;;;;;5034737;28;20059;-70
2023/09/05 00:15:12;;;;;;;8.27;4.65;;;15.90;99.90;;;;;;5051342;28;20056;-70
2023/09/05 00:17:38;;;;;;;8.02;4.97;;;16.00;99.90;;;;;;5069306;28;20128;-70
2023/09/05 00:20:05;;;;;;;5.20;4.65;;;16.00;99.90;;;;;;5051188;28;20048;-69
2023/09/05 00:22:31;;;;;;;7.22;4.63;;;16.00;99.90;;;;;;5051307;28;20052;-70
2023/09/05 00:24:56;;;;;;;7.43;4.78;;;16.00;99.90;;;;;;5068884;28;20056;-70
2023/09/05 00:27:22;;;;;;;6.00;4.85;;;16.00;99.90;;;;;;5050908;28;20048;-70
2023/09/05 00:29:48;;;;;;;7.15;4.55;;;16.00;99.90;;;;;;5069333;28;20113;-70
2023/09/05 00:32:13;;;;;;;5.25;4.28;;;16.00;99.90;;;;;;5068934;28;20052;-70
2023/09/05 00:34:39;;;;;;;8.63;4.95;;;16.00;99.90;;;;;;5068755;28;20043;-70
2023/09/05 00:37:07;;;;;;;8.90;4.90;;;16.00;99.90;;;;;;5051127;28;20049;-70
2023/09/05 00:39:34;;;;;;;9.00;5.30;;;16.00;99.90;;;;;;5068909;28;20049;-70
2023/09/05 00:42:03;;;;;;;8.02;5.25;;;16.00;99.90;;;;;;5068764;28;20086;-70
2023/09/05 00:44:29;;;;;;;7.50;5.28;;;15.90;99.90;;;;;;5068981;28;20052;-70
2023/09/05 00:46:58;;;;;;;7.68;4.95;;;15.90;99.90;;;;;;5068610;28;20527;-70
2023/09/05 00:49:27;;;;;;;6.25;4.78;;;15.80;99.90;;;;;;5068938;28;20065;-70
2023/09/05 00:51:57;;;;;;;7.72;5.30;;;15.80;99.90;;;;;;5069145;28;20053;-70
2023/09/05 00:54:23;;;;;;;6.85;5.03;;;15.70;99.90;;;;;;5068662;28;20504;-70
2023/09/05 00:56:49;;;;;;;10.98;4.95;;;15.70;99.90;;;;;;5033882;28;20056;-70
2023/09/05 00:59:15;;;;;;;6.80;5.40;;;15.70;99.90;;;;;;5068779;28;20494;-70
2023/09/05 01:01:41;;;;;;;6.15;4.97;;;15.80;99.90;;;;;;5068813;28;20098;-70
2023/09/05 01:04:07;;;;;;;6.20;4.85;;;15.80;99.90;;;;;;5050890;28;20044;-70
2023/09/05 01:06:40;;;;;;;8.25;5.30;;;15.70;99.90;;;;;;5050763;28;20443;-70
2023/09/05 01:09:20;;;;;;;6.82;5.32;;;15.60;99.90;;;;;;5068114;28;20056;-70
2023/09/05 01:11:47;;;;;;;6.50;4.78;;;15.50;99.90;;;;;;5068601;28;20519;-70
2023/09/05 01:14:14;;;;;;;8.32;5.55;;;15.50;99.90;;;;;;5050170;28;20055;-70
2023/09/05 01:16:43;;;;;;;7.53;6.03;;;15.50;99.90;;;;;;5069508;28;20120;-70
2023/09/05 01:19:12;;;;;;;9.45;6.00;;;15.60;99.90;;;;;;5072217;28;20500;-70
2023/09/05 01:21:45;;;;;;;6.85;5.47;;;15.60;99.90;;;;;;5072083;28;20056;-70
2023/09/05 01:24:15;;;;;;;9.23;5.72;;;15.60;99.90;;;;;;5072358;28;20143;-70
2023/09/05 01:26:41;;;;;;;8.07;5.30;;;15.60;99.90;;;;;;5037021;28;20107;-70
2023/09/05 01:29:08;;;;;;;6.93;5.10;;;15.60;99.90;;;;;;5054229;28;20048;-70
2023/09/05 01:31:35;;;;;;;7.53;5.57;;;15.60;99.90;;;;;;5053936;28;20056;-70
2023/09/05 01:34:00;;;;;;;7.28;5.28;;;15.50;99.90;;;;;;5071867;28;20139;-70
2023/09/05 01:36:26;;;;;;;9.75;5.15;;;15.50;99.90;;;;;;5072083;28;20127;-70
2023/09/05 01:38:52;;;;;;;7.65;6.00;;;15.40;99.90;;;;;;5053768;28;20122;-70
2023/09/05 01:41:17;;;;;;;8.20;5.95;;;15.40;99.90;;;;;;5053800;28;20084;-70
2023/09/05 01:43:43;;;;;;;12.00;5.50;;;15.30;99.90;;;;;;5053664;28;20556;-70
2023/09/05 01:46:09;;;;;;;9.10;5.90;;;15.20;99.90;;;;;;5071967;28;20083;-70
2023/09/05 01:48:35;;;;;;;8.85;5.93;;;15.20;99.90;;;;;;5071589;28;20431;-70
2023/09/05 01:51:01;;;;;;;10.27;5.65;;;15.10;99.90;;;;;;5071853;28;20052;-70
2023/09/05 01:53:27;;;;;;;8.63;5.93;;;15.10;99.90;;;;;;5071556;28;20139;-70
2023/09/05 01:55:52;;;;;;;8.70;6.05;;;15.10;99.90;;;;;;5053466;28;20052;-70
2023/09/05 01:58:18;;;;;;;7.47;5.60;;;15.10;99.90;;;;;;5053080;28;20044;-70
2023/09/05 02:00:44;;;;;;;7.63;5.72;;;15.10;99.90;;;;;;5071585;28;20083;-70
2023/09/05 02:03:10;;;;;;;6.63;5.28;;;15.10;99.90;;;;;;5071493;28;20048;-70
2023/09/05 02:05:36;;;;;;;7.53;5.90;;;15.10;99.90;;;;;;5071300;28;20048;-70
2023/09/05 02:08:03;;;;;;;8.75;6.32;;;15.10;99.90;;;;;;5053255;28;20056;-70
2023/09/05 02:10:30;;;;;;;10.23;5.85;;;15.00;99.90;;;;;;5053237;28;20044;-70
2023/09/05 02:12:56;;;;;;;10.35;5.88;;;15.00;99.90;;;;;;5071198;28;20328;-70
2023/09/05 02:15:22;;;;;;;9.68;6.57;;;15.00;99.90;;;;;;5071200;28;20062;-70
2023/09/05 02:17:48;;;;;;;8.15;6.50;;;15.00;99.90;;;;;;5071100;28;20414;-70
2023/09/05 02:20:14;;;;;;;7.57;6.10;;;15.00;99.90;;;;;;5071209;28;20044;-70
2023/09/05 02:22:44;;;;;;;6.68;5.90;;;15.00;99.90;;;;;;5071129;28;20056;-70
2023/09/05 02:25:11;;;;;;;7.63;5.82;;;15.00;99.90;;;;;;5070737;28;20083;-70
2023/09/05 02:27:38;;;;;;;9.38;6.38;;;14.90;99.90;;;;;;5070683;28;20533;-70
2023/09/05 02:30:06;;;;;;;7.72;5.88;;;14.90;99.90;;;;;;5070942;28;20162;-70
2023/09/05 02:32:32;;;;;;;10.77;6.18;;;14.90;99.90;;;;;;5052895;28;20048;-70
2023/09/05 02:34:58;;;;;;;10.20;7.32;;;14.90;99.90;;;;;;5052989;28;20060;-70
2023/09/05 02:37:24;;;;;;;9.82;6.90;;;14.90;99.90;;;;;;5070815;28;20059;-70
2023/09/05 02:39:50;;;;;;;10.73;6.75;;;15.00;99.90;;;;;;5070909;28;20048;-70
2023/09/05 02:42:15;;;;;;;11.73;6.85;;;15.00;99.90;;;;;;5070519;28;20051;-70
2023/09/05 02:44:41;;;;;;;9.98;6.15;;;15.00;99.90;;;;;;5070629;28;20121;-70
2023/09/05 02:47:07;;;;;;;10.23;6.65;;;15.00;99.90;;;;;;5052611;28;20056;-70
2023/09/05 02:49:32;;;;;;;8.13;6.53;;;15.00;99.90;;;;;;5070642;28;20044;-70
2023/09/05 02:51:59;;;;;;;9.73;6.95;;;15.00;99.90;;;;;;5070747;28;20051;-70
2023/09/05 02:54:27;;;;;;;9.63;6.35;;;15.00;99.90;;;;;;5052449;28;20131;-70
2023/09/05 02:56:54;;;;;;;8.73;6.60;;;15.00;99.90;;;;;;5070164;28;20068;-70
2023/09/05 02:59:21;;;;;;;10.43;6.57;;;14.90;99.90;;;;;;5070389;28;20052;-70
2023/09/05 03:01:47;;;;;;;10.13;7.18;;;14.90;99.90;;;;;;5052308;28;20547;-70
2023/09/05 03:04:14;;;;;;;9.70;6.68;;;14.90;99.90;;;;;;5070183;28;20060;-70
2023/09/05 03:06:41;;;;;;;10.15;6.30;;;14.90;99.90;;;;;;5070256;28;20040;-70
2023/09/05 03:09:07;;;;;;;9.25;6.68;;;14.90;99.90;;;;;;5070052;28;20427;-70
2023/09/05 03:11:32;;;;;;;9.48;6.63;;;14.80;99.90;;;;;;5069973;28;20049;-70
2023/09/05 03:13:58;;;;;;;8.73;6.80;;;14.70;99.90;;;;;;5070051;28;20060;-70
2023/09/05 03:16:24;;;;;;;11.60;6.85;;;14.70;99.90;;;;;;5070287;28;20088;-70
2023/09/05 03:18:50;;;;;;;9.57;6.57;;;14.70;99.90;;;;;;5070327;28;20122;-70
2023/09/05 03:21:17;;;;;;;9.52;6.72;;;14.70;99.90;;;;;;5070302;28;20051;-70
2023/09/05 03:23:43;;;;;;;9.23;6.85;;;14.80;99.90;;;;;;5070122;28;20127;-70
2023/09/05 03:26:09;;;;;;;9.70;7.10;;;14.70;99.90;;;;;;5069896;28;20439;-70
2023/09/05 03:28:42;;;;;;;11.20;6.88;;;14.80;99.90;;;;;;5070127;28;20044;-70
2023/09/05 03:31:07;;;;;;;8.02;6.85;;;14.80;99.90;;;;;;5070345;28;20113;-70
2023/09/05 03:33:33;;;;;;;7.53;6.30;;;14.80;99.90;;;;;;5069974;28;20056;-70
2023/09/05 03:35:59;;;;;;;9.93;6.28;;;14.80;99.90;;;;;;5069877;28;20540;-69
2023/09/05 03:38:24;;;;;;;9.95;7.30;;;14.70;99.90;;;;;;5069334;28;20431;-70
2023/09/05 03:40:50;;;;;;;10.30;6.90;;;14.70;99.90;;;;;;5069109;28;20048;-70
2023/09/05 03:43:16;;;;;;;10.10;7.00;;;14.70;99.90;;;;;;5051773;28;20404;-70
2023/09/05 03:45:47;;;;;;;9.75;7.43;;;14.70;99.90;;;;;;5069596;28;20040;-70
2023/09/05 03:48:12;;;;;;;11.13;7.28;;;14.70;99.90;;;;;;5035237;28;20458;-70
2023/09/05 03:50:38;;;;;;;10.90;7.47;;;14.70;99.90;;;;;;5069502;28;20060;-69
2023/09/05 03:53:04;;;;;;;11.50;8.00;;;14.60;99.90;;;;;;5069681;28;20041;-70
2023/09/05 03:55:30;;;;;;;9.95;7.25;;;14.60;99.90;;;;;;5069483;28;20045;-70
2023/09/05 03:57:55;;;;;;;10.68;6.85;;;14.60;99.90;;;;;;5069160;28;20091;-70
2023/09/05 04:00:21;;;;;;;9.43;7.25;;;14.60;99.90;;;;;;5069493;28;20080;-70
2023/09/05 04:02:47;;;;;;;8.60;6.78;;;14.50;99.90;;;;;;5069484;28;20040;-70
2023/09/05 04:05:12;;;;;;;9.18;6.55;;;14.50;99.90;;;;;;5069349;28;20161;-70
2023/09/05 04:07:38;;;;;;;10.25;6.30;;;14.50;99.90;;;;;;5069378;28;20063;-70
2023/09/05 04:10:04;;;;;;;11.00;6.93;;;14.60;99.90;;;;;;5069350;28;20057;-70
2023/09/05 04:12:30;;;;;;;9.57;6.65;;;14.60;99.90;;;;;;5070330;28;20045;-70
2023/09/05 04:14:56;;;;;;;10.07;7.43;;;14.50;99.90;;;;;;5069925;28;20106;-70
2023/09/05 04:17:22;;;;;;;8.20;6.68;;;14.50;99.90;;;;;;5051625;28;20048;-70
2023/09/05 04:19:52;;;;;;;8.13;6.68;;;14.50;99.90;;;;;;5069394;28;20083;-70
2023/09/05 04:22:19;;;;;;;8.27;6.70;;;14.50;99.90;;;;;;5069042;28;20052;-70
2023/09/05 04:24:45;;;;;;;10.98;7.13;;;14.50;99.90;;;;;;5068843;28;20036;-70
2023/09/05 04:27:10;;;;;;;9.15;6.35;;;14.50;99.90;;;;;;5069482;28;20044;-71
2023/09/05 04:29:36;;;;;;;10.02;7.03;;;14.50;99.90;;;;;;5050937;28;20056;-71
2023/09/05 04:32:02;;;;;;;9.65;6.95;;;14.50;99.90;;;;;;5069029;28;20040;-70
2023/09/05 04:34:29;;;;;;;9.85;7.03;;;14.50;99.90;;;;;;5069003;28;20055;-70
2023/09/05 04:36:56;;;;;;;8.75;6.80;;;14.40;99.90;;;;;;5050751;28;20052;-70
2023/09/05 04:39:21;;;;;;;8.27;5.85;;;14.40;99.90;;;;;;5050617;28;20053;-71
2023/09/05 04:41:47;;;;;;;9.00;6.68;;;14.40;99.90;;;;;;5069055;28;20044;-70
2023/09/05 04:44:13;;;;;;;10.98;8.27;;;14.30;99.90;;;;;;5068964;28;20873;-70
2023/09/05 04:46:39;;;;;;;9.45;7.03;;;14.40;99.90;;;;;;5068903;28;20044;-69
2023/09/05 04:49:05;;;;;;;10.02;7.28;;;14.40;99.90;;;;;;5069232;28;20411;-70
2023/09/05 04:51:31;;;;;;;10.20;7.22;;;14.40;99.90;;;;;;5070927;28;20438;-70
2023/09/05 04:53:56;;;;;;;10.65;7.03;;;14.30;99.90;;;;;;5073235;28;20093;-70
2023/09/05 04:56:22;;;;;;;11.70;7.10;;;14.30;99.90;;;;;;5073073;28;20210;-70
2023/09/05 04:58:49;;;;;;;11.20;7.20;;;14.30;99.90;;;;;;5054647;28;20523;-70
2023/09/05 05:01:17;;;;;;;11.10;7.13;;;14.30;99.90;;;;;;5055301;28;20106;-69
2023/09/05 05:03:43;;;;;;;13.85;7.90;;;14.30;99.90;;;;;;5072465;28;20052;-69
2023/09/05 05:06:08;;;;;;;12.25;7.65;;;14.40;99.90;;;;;;5072398;28;20051;-69
2023/09/05 05:08:34;;;;;;;8.68;6.80;;;14.30;99.90;;;;;;5050733;28;20264;-70
2023/09/05 05:11:04;;;;;;;12.23;8.23;;;14.40;99.90;;;;;;5052636;28;20098;-69
2023/09/05 05:13:30;;;;;;;11.18;7.80;;;14.40;99.90;;;;;;5051209;28;20061;-70
2023/09/05 05:15:55;;;;;;;13.40;8.20;;;14.50;99.90;;;;;;5052239;28;20456;-70
2023/09/05 05:18:21;;;;;;;9.70;7.90;;;14.50;99.90;;;;;;5052486;28;20048;-70
2023/09/05 05:20:47;;;;;;;11.18;7.43;;;14.60;99.90;;;;;;5050660;28;20527;-70
2023/09/05 05:23:12;;;;;;;10.98;7.53;;;14.60;99.90;;;;;;5051093;28;20045;-70
2023/09/05 05:25:38;;;;;;;10.85;7.43;;;14.70;99.90;;;;;;5050582;28;20052;-69
2023/09/05 05:28:05;;;;;;;13.35;7.43;;;14.80;99.90;;;;;;5050848;28;20049;-70
2023/09/05 05:30:36;;;;;;;8.55;6.78;;;14.80;99.90;;;;;;5052232;28;20068;-70
2023/09/05 05:33:03;;;;;;;12.35;7.65;;;14.80;99.90;;;;;;5051022;28;20084;-70
2023/09/05 05:35:28;;;;;;;10.25;7.38;;;14.90;99.90;;;;;;5052163;28;20051;-70
2023/09/05 05:37:54;;;;;;;9.77;7.40;;;15.00;99.90;;;;;;5052261;28;20053;-70
2023/09/05 05:40:20;;;;;;;10.52;7.15;;;15.10;99.90;;;;;;5052094;28;20053;-69
2023/09/05 05:42:45;;;;;;;10.60;7.53;;;15.10;99.90;;;;;;5051872;28;20509;-70
2023/09/05 05:45:11;;;;;;;9.85;7.05;;;15.20;99.90;;;;;;5052011;28;20053;-70
2023/09/05 05:47:37;;;;;;;14.10;7.53;;;15.30;99.90;;;;;;5052235;28;20432;-70
2023/09/05 05:50:03;;;;;;;9.32;7.20;;;15.40;99.90;;;;;;5051316;28;20139;-70
2023/09/05 05:52:29;;;;;;;14.05;8.20;;;15.40;99.90;;;;;;5051724;28;20052;-70
2023/09/05 05:54:54;;;;;;;10.80;7.55;;;15.50;99.90;;;;;;5051998;28;20064;-70
2023/09/05 05:57:20;;;;;;;9.35;6.88;;;15.60;99.90;;;;;;5050183;28;20416;-70
2023/09/05 05:59:46;;;;;;;11.43;6.95;;;15.70;99.90;;;;;;5051536;28;20061;-70
2023/09/05 06:02:12;;;;;;;9.10;7.43;;;15.70;99.90;;;;;;5051105;28;20456;-71
2023/09/05 06:04:38;;;;;;;8.60;6.90;;;15.80;99.90;;;;;;5051217;28;20132;-70
2023/09/05 06:07:04;;;;;;;10.52;8.00;;;15.90;99.90;;;;;;5050082;28;20132;-70
2023/09/05 06:09:29;;;;;;;9.30;7.43;;;15.90;99.90;;;;;;5049803;28;20175;-70
2023/09/05 06:11:55;;;;;;;11.63;6.80;;;16.00;99.90;;;;;;5049990;28;20076;-70
2023/09/05 06:14:21;;;;;;;10.68;7.60;;;16.10;99.90;;;;;;5051472;28;20049;-70
2023/09/05 06:16:47;;;;;;;10.48;7.10;;;16.10;99.90;;;;;;5051393;28;20091;-70
2023/09/05 06:19:16;;;;;;;10.30;7.75;;;16.20;99.90;;;;;;5050983;28;20053;-70
2023/09/05 06:21:46;;;;;;;9.02;7.00;;;16.30;99.90;;;;;;5051092;28;20051;-70
2023/09/05 06:24:12;;;;;;;11.95;7.13;;;16.30;99.90;;;;;;5049853;28;20048;-70
2023/09/05 06:26:38;;;;;;;8.48;6.88;;;16.50;99.90;;;;;;5050526;28;20045;-70
2023/09/05 06:29:04;;;;;;;8.80;6.25;;;16.50;99.90;;;;;;5049875;28;20083;-71
2023/09/05 06:31:30;;;;;;;11.35;6.60;;;16.50;99.90;;;;;;5050913;28;20048;-70
2023/09/05 06:33:55;;;;;;;8.38;5.93;;;16.60;99.90;;;;;;5050692;28;20053;-70
2023/09/05 06:36:22;;;;;;;9.63;6.72;;;16.70;99.90;;;;;;5049466;28;20500;-70
2023/09/05 06:38:47;;;;;;;10.65;7.20;;;16.70;99.90;;;;;;5050539;28;20053;-70
2023/09/05 06:41:15;;;;;;;10.43;7.53;;;16.80;99.90;;;;;;5051020;28;20102;-70
2023/09/05 06:43:41;;;;;;;9.50;7.35;;;16.90;99.90;;;;;;5050714;28;20084;-70
2023/09/05 06:46:08;;;;;;;8.85;6.15;;;17.00;99.90;;;;;;5050975;28;20091;-70
2023/09/05 06:48:38;;;;;;;7.82;6.28;;;17.10;99.90;;;;;;5049034;28;20060;-70
2023/09/05 06:51:04;;;;;;;10.27;6.47;;;17.20;99.90;;;;;;5050768;28;20049;-70
2023/09/05 06:53:32;;;;;;;10.00;6.53;;;17.30;99.90;;;;;;5050854;28;20044;-70
2023/09/05 06:55:58;;;;;;;10.05;6.93;;;17.40;99.90;;;;;;5048839;28;20088;-69
2023/09/05 06:58:25;;;;;;;8.90;6.32;;;17.40;99.90;;;;;;5048940;28;20088;-70
2023/09/05 07:00:54;;;;;;;11.48;6.45;;;17.40;99.90;;;;;;5049025;28;20531;-69
2023/09/05 07:03:24;;;;;;;8.20;6.45;;;17.50;99.90;;;;;;5049943;28;20044;-70
2023/09/05 07:05:51;;;;;;;8.43;6.22;;;17.60;99.90;;;;;;5050207;28;20056;-70
2023/09/05 07:08:16;;;;;;;7.25;5.63;;;17.70;99.90;;;;;;5050874;28;20061;-70
2023/09/05 07:10:42;;;;;;;7.88;6.03;;;17.70;99.90;;;;;;5070053;28;20106;-70
2023/09/05 07:13:08;;;;;;;10.15;5.88;;;17.70;99.90;;;;;;5070074;28;20131;-70
2023/09/05 07:15:33;;;;;;;8.70;6.35;;;17.80;99.90;;;;;;5068720;28;20585;-70
2023/09/05 07:17:59;;;;;;;9.77;5.88;;;17.80;99.90;;;;;;5051627;28;20162;-70
2023/09/05 07:20:25;;;;;;;8.75;6.18;;;17.90;99.90;;;;;;5070144;28;20033;-70
2023/09/05 07:22:51;;;;;;;7.40;5.90;;;17.90;99.90;;;;;;5070143;28;20120;-70
2023/09/05 07:25:17;;;;;;;7.88;5.55;;;17.90;99.90;;;;;;5069422;28;20048;-70
2023/09/05 07:27:42;;;;;;;7.90;6.00;;;18.10;99.90;;;;;;5069821;28;20080;-70
2023/09/05 07:30:08;;;;;;;9.00;5.97;;;18.10;99.90;;;;;;5069749;28;20056;-70
2023/09/05 07:32:34;;;;;;;7.30;5.88;;;18.30;99.90;;;;;;5051632;28;20408;-70
2023/09/05 09:42:10;;;;;;;3.55;1.83;;;22.70;99.90;;;;;;6164453;22;1327349;-69
2023/09/05 09:44:38;;;;;;;2.22;2.03;;;22.90;99.90;;;;;;6125449;23;20034;-69
2023/09/05 09:47:03;;;;;;;3.35;1.83;;;22.80;99.90;;;;;;6125451;23;20027;-69
2023/09/05 09:49:30;;;;;;;2.72;1.77;;;23.00;99.90;;;;;;6151750;23;20029;-68
2023/09/05 09:52:00;;;;;;;3.83;1.90;;;23.00;99.90;;;;;;6151824;23;20025;-69
2023/09/05 09:54:31;;;;;;;2.47;2.00;;;23.10;99.90;;;;;;6151894;23;20027;-68
2023/09/05 09:57:04;;;;;;;3.57;2.20;;;23.20;99.90;;;;;;6125160;23;20025;-70
2023/09/05 09:59:38;;;;;;;3.58;1.88;;;23.30;99.90;;;;;;6125786;23;20017;-69
2023/09/05 10:02:15;;;;;;;3.70;2.30;;;23.40;99.90;;;;;;6151892;23;20022;-69
2023/09/05 10:04:42;;;;;;;2.70;2.03;;;23.40;99.90;;;;;;6125911;23;20021;-69
2023/09/05 10:07:14;;;;;;;2.60;1.73;;;23.60;99.90;;;;;;6125401;23;20017;-69
2023/09/05 10:09:43;;;;;;;5.07;1.83;;;23.50;99.90;;;;;;6151505;23;20029;-70
2023/09/05 10:12:09;;;;;;;1.98;1.77;;;23.60;99.90;;;;;;6151636;23;20473;-70
2023/09/05 10:14:37;;;;;;;2.75;1.73;;;23.60;99.90;;;;;;6124920;23;20021;-69
2023/09/05 10:17:04;;;;;;;3.28;1.60;;;23.80;99.90;;;;;;6125041;23;20028;-70
2023/09/05 10:19:30;;;;;;;2.78;1.75;;;23.80;99.90;;;;;;6151525;23;20027;-70
2023/09/05 10:21:58;;;;;;;3.40;1.98;;;23.90;99.90;;;;;;6151276;23;20439;-69
2023/09/05 10:24:32;;;;;;;3.38;1.50;;;24.00;99.90;;;;;;6125396;23;20075;-69
2023/09/05 10:26:58;;;;;;;3.70;1.67;;;24.10;99.90;;;;;;6124731;23;20025;-69
2023/09/05 10:29:34;;;;;;;3.22;2.00;;;24.10;99.90;;;;;;6125191;23;20402;-70
2023/09/05 10:32:04;;;;;;;5.22;1.90;;;24.10;99.90;;;;;;6151615;23;20013;-69
2023/09/05 10:34:47;;;;;;;6.00;1.80;;;24.20;99.90;;;;;;6125079;23;20694;-70
2023/09/05 10:37:22;;;;;;;2.00;1.50;;;24.30;99.90;;;;;;6151400;23;20068;-69
2023/09/05 10:39:49;;;;;;;2.70;1.60;;;24.30;99.90;;;;;;6150797;23;20021;-69
2023/09/05 10:42:16;;;;;;;3.92;1.63;;;24.40;99.90;;;;;;6100254;23;20402;-70
2023/09/05 10:44:46;;;;;;;3.50;1.60;;;24.50;99.90;;;;;;6124872;23;20025;-69
2023/09/05 10:47:35;;;;;;;2.60;1.77;;;24.40;99.90;;;;;;6151624;23;20103;-70
2023/09/05 10:50:09;;;;;;;3.05;1.73;;;24.40;99.90;;;;;;6124846;23;20084;-70
2023/09/05 10:52:35;;;;;;;2.30;1.60;;;24.60;99.90;;;;;;6151465;23;20080;-70
2023/09/05 10:55:29;;;;;;;2.85;1.80;;;24.60;99.90;;;;;;6150944;23;20021;-69
2023/09/05 10:57:55;;;;;;;1.65;1.52;;;24.60;99.90;;;;;;6100184;23;20524;-70
2023/09/05 11:00:22;;;;;;;2.50;1.45;;;24.70;99.90;;;;;;6124800;23;20052;-69
2023/09/05 11:02:48;;;;;;;5.03;1.70;;;24.70;99.90;;;;;;6124564;23;20092;-70
2023/09/05 11:05:18;;;;;;;2.13;1.38;;;24.90;99.90;;;;;;6151768;23;20010;-69
2023/09/05 11:07:45;;;;;;;3.70;1.65;;;24.90;99.90;;;;;;6151103;23;20024;-70
2023/09/05 11:10:14;;;;;;;2.35;1.55;;;24.90;99.90;;;;;;6151072;23;20018;-69
2023/09/05 11:12:40;;;;;;;1.40;1.23;;;25.00;99.90;;;;;;6151295;23;20014;-70
2023/09/05 11:15:08;;;;;;;2.45;1.60;;;24.90;99.90;;;;;;6151098;23;20089;-70
2023/09/05 11:17:35;;;;;;;3.17;1.23;;;25.00;99.90;;;;;;6150907;23;20123;-70
2023/09/05 11:20:02;;;;;;;2.83;1.40;;;25.00;99.90;;;;;;6150846;23;20097;-70
2023/09/05 11:22:28;;;;;;;5.82;1.20;;;25.10;99.90;;;;;;6151179;23;20402;-69
2023/09/05 11:24:58;;;;;;;3.08;1.60;;;25.10;99.90;;;;;;6150479;23;20037;-70
2023/09/05 11:27:31;;;;;;;2.63;1.27;;;25.20;99.90;;;;;;6151129;23;20018;-70
2023/09/05 11:30:03;;;;;;;2.15;1.30;;;25.20;99.90;;;;;;6150860;23;20020;-69
2023/09/05 11:32:33;;;;;;;1.55;1.10;;;25.20;99.90;;;;;;6150557;23;20518;-70
2023/09/05 11:35:01;;;;;;;2.35;1.30;;;25.30;99.90;;;;;;6151049;23;20028;-70
2023/09/05 11:37:28;;;;;;;1.30;1.10;;;25.30;99.90;;;;;;6150927;23;20018;-70
2023/09/05 11:39:54;;;;;;;2.63;1.35;;;25.40;99.90;;;;;;6100084;23;20018;-69
2023/09/05 11:42:30;;;;;;;1.52;1.10;;;25.40;99.90;;;;;;6124238;23;20101;-69
2023/09/05 11:44:57;;;;;;;1.98;1.08;;;25.50;99.90;;;;;;6151005;23;20036;-70
2023/09/05 11:47:26;;;;;;;4.28;1.52;;;25.60;99.90;;;;;;6151014;23;20211;-70
2023/09/05 11:49:53;;;;;;;3.05;1.17;;;25.70;99.90;;;;;;6151096;23;20096;-70
2023/09/05 11:52:20;;;;;;;1.70;1.23;;;25.60;99.90;;;;;;6099977;23;20025;-70
2023/09/05 11:54:51;;;;;;;1.20;1.02;;;25.60;99.90;;;;;;6124572;23;20017;-70
2023/09/05 11:57:19;;;;;;;1.85;1.20;;;25.70;99.90;;;;;;6151051;23;20013;-69
2023/09/05 11:59:46;;;;;;;3.42;1.13;;;25.70;99.90;;;;;;6150745;23;20016;-70
2023/09/05 12:02:18;;;;;;;2.75;1.35;;;25.90;99.90;;;;;;6150889;23;20017;-70
2023/09/05 12:04:48;;;;;;;1.70;1.30;;;25.90;99.90;;;;;;6150848;23;20100;-69
2023/09/05 12:07:14;;;;;;;3.60;1.40;;;26.00;99.90;;;;;;6150736;23;20021;-70
2023/09/05 12:09:40;;;;;;;1.90;1.50;;;26.10;99.90;;;;;;6150588;23;20456;-70
2023/09/05 12:12:13;;;;;;;2.05;1.35;;;26.10;99.90;;;;;;6151086;23;20049;-70
2023/09/05 12:14:56;;;;;;;2.33;1.38;;;26.00;99.90;;;;;;6150799;23;20365;-69
2023/09/05 12:17:24;;;;;;;2.70;1.55;;;26.10;99.90;;;;;;6150895;23;20009;-69
2023/09/05 12:19:51;;;;;;;2.70;1.40;;;26.00;99.90;;;;;;6150719;23;20060;-69
2023/09/05 12:22:31;;;;;;;2.03;1.20;;;26.10;99.90;;;;;;6125977;23;20025;-70
2023/09/05 12:25:16;;;;;;;3.28;1.48;;;26.20;99.90;;;;;;6152514;23;20645;-70
2023/09/05 12:27:49;;;;;;;2.55;1.25;;;26.10;99.90;;;;;;6152758;23;20018;-70
2023/09/05 12:30:32;;;;;;;2.00;1.50;;;26.00;99.90;;;;;;6152701;23;20088;-70
2023/09/05 12:33:03;;;;;;;4.20;1.48;;;26.10;99.90;;;;;;6152429;23;20052;-70
2023/09/05 12:35:31;;;;;;;1.67;1.33;;;26.20;99.90;;;;;;6125868;23;20032;-69
2023/09/05 12:38:01;;;;;;;3.88;1.60;;;26.30;99.90;;;;;;6152751;23;20641;-69
2023/09/05 12:40:28;;;;;;;1.42;1.20;;;26.30;99.90;;;;;;6126331;23;20020;-69
2023/09/05 12:42:54;;;;;;;1.35;1.25;;;26.30;99.90;;;;;;6152335;23;20477;-69
2023/09/05 12:45:20;;;;;;;1.98;1.40;;;26.30;99.90;;;;;;6126232;23;20021;-69
2023/09/05 12:47:51;;;;;;;1.65;1.27;;;26.20;99.90;;;;;;6153146;23;20096;-69
2023/09/05 12:50:22;;;;;;;1.27;1.02;;;26.20;99.90;;;;;;6126204;23;20013;-69
2023/09/05 12:52:49;;;;;;;1.85;1.25;;;26.30;99.90;;;;;;6153099;23;20014;-70
2023/09/05 12:55:15;;;;;;;2.15;1.27;;;26.40;99.90;;;;;;6126145;23;20021;-70
2023/09/05 12:57:46;;;;;;;5.72;1.40;;;26.60;99.90;;;;;;6152106;23;20450;-69
2023/09/05 13:00:13;;;;;;;3.22;1.40;;;26.60;99.90;;;;;;6152523;23;20018;-69
2023/09/05 13:02:39;;;;;;;3.67;1.40;;;26.50;99.90;;;;;;6125962;23;20021;-70
2023/09/05 13:05:05;;;;;;;1.73;0.90;;;26.60;99.90;;;;;;6152170;23;20021;-70
2023/09/05 13:07:30;;;;;;;5.82;2.00;;;26.60;99.90;;;;;;6152003;23;20010;-70
2023/09/05 13:09:56;;;;;;;2.78;1.20;;;26.60;99.90;;;;;;6101245;23;20041;-70
2023/09/05 13:12:22;;;;;;;1.60;1.23;;;26.70;99.90;;;;;;6152413;23;20044;-70
2023/09/05 13:14:48;;;;;;;3.25;1.25;;;26.70;99.90;;;;;;6152248;23;20741;-70
2023/09/05 13:17:15;;;;;;;2.38;1.38;;;26.70;99.90;;;;;;6152256;23;20009;-70
2023/09/05 13:19:41;;;;;;;2.95;1.40;;;26.70;99.90;;;;;;6125475;23;20136;-70
2023/09/05 13:22:07;;;;;;;1.20;1.10;;;26.80;99.90;;;;;;6152336;23;20025;-70
2023/09/05 13:24:33;;;;;;;3.60;1.40;;;26.80;99.90;;;;;;6125061;23;20920;-70
2023/09/05 13:27:00;;;;;;;1.77;1.08;;;26.80;99.90;;;;;;6125531;23;20021;-70
2023/09/05 13:29:26;;;;;;;2.53;1.52;;;26.80;99.90;;;;;;6152189;23;20044;-70
2023/09/05 13:31:52;;;;;;;3.83;1.33;;;26.80;99.90;;;;;;6125902;23;20377;-70
2023/09/05 13:34:17;;;;;;;2.40;1.20;;;26.90;99.90;;;;;;6151759;23;20088;-69
2023/09/05 13:36:43;;;;;;;2.10;1.40;;;26.80;99.90;;;;;;6101272;23;20018;-70
2023/09/05 13:39:10;;;;;;;3.03;1.25;;;26.90;99.90;;;;;;6151736;23;20446;-70
2023/09/05 13:41:36;;;;;;;1.08;0.98;;;27.00;99.90;;;;;;6152152;23;20054;-69
2023/09/05 13:44:02;;;;;;;1.73;1.25;;;27.00;99.90;;;;;;6126522;23;20014;-70
2023/09/05 13:46:28;;;;;;;1.63;1.17;;;26.90;99.90;;;;;;6152210;23;20041;-70
2023/09/05 13:48:53;;;;;;;2.42;1.33;;;26.90;99.90;;;;;;6101246;23;20056;-70
2023/09/05 13:51:22;;;;;;;1.98;1.40;;;27.00;99.90;;;;;;6152228;23;20017;-69
2023/09/05 13:53:52;;;;;;;1.55;1.15;;;27.00;99.90;;;;;;6152006;23;20449;-70
2023/09/05 13:56:17;;;;;;;1.30;0.93;;;27.00;99.90;;;;;;6151880;23;20050;-70
2023/09/05 13:58:43;;;;;;;2.92;1.38;;;27.00;99.90;;;;;;6125739;23;20018;-70
2023/09/05 14:01:09;;;;;;;3.33;1.40;;;27.10;99.90;;;;;;6151986;23;20020;-70
2023/09/05 14:03:35;;;;;;;3.30;1.40;;;27.20;99.90;;;;;;6151559;23;20025;-70
2023/09/05 14:06:01;;;;;;;3.33;1.50;;;27.20;99.90;;;;;;6151629;23;20435;-70
2023/09/05 14:08:27;;;;;;;3.53;1.13;;;27.20;99.90;;;;;;6125259;23;20017;-70
2023/09/05 14:10:53;;;;;;;1.70;1.42;;;27.30;99.90;;;;;;6125685;23;20493;-70
2023/09/05 14:13:20;;;;;;;2.28;1.25;;;27.30;99.90;;;;;;6125449;23;20100;-70
2023/09/05 14:15:49;;;;;;;1.75;1.35;;;27.30;99.90;;;;;;6101006;23;20021;-70
2023/09/05 14:18:15;;;;;;;4.72;1.60;;;27.40;99.90;;;;;;6125513;23;20021;-70
2023/09/05 14:20:41;;;;;;;1.75;1.40;;;27.40;99.90;;;;;;6151993;23;20024;-70
2023/09/05 14:23:07;;;;;;;3.38;1.60;;;27.30;99.90;;;;;;6152069;23;20461;-70
2023/09/05 14:25:33;;;;;;;3.10;1.13;;;27.40;99.90;;;;;;6125144;23;20121;-70
2023/09/05 14:28:01;;;;;;;4.47;1.27;;;27.40;99.90;;;;;;6125762;23;20052;-70
2023/09/05 14:30:26;;;;;;;3.33;1.63;;;27.40;99.90;;;;;;6151495;23;20049;-70
2023/09/05 14:32:52;;;;;;;1.98;1.30;;;27.50;99.90;;;;;;6124793;23;20036;-70
2023/09/05 14:35:18;;;;;;;3.53;1.25;;;27.50;99.90;;;;;;6151401;23;20030;-70
2023/09/05 14:37:44;;;;;;;3.95;0.98;;;27.50;99.90;;;;;;6125078;23;20025;-70
2023/09/05 14:40:10;;;;;;;2.22;1.25;;;27.50;99.90;;;;;;6151080;23;20017;-70
2023/09/05 14:42:36;;;;;;;1.42;0.98;;;27.60;99.90;;;;;;6150767;23;20064;-70
2023/09/05 14:45:02;;;;;;;1.70;1.20;;;27.60;99.90;;;;;;6124959;23;20690;-70
2023/09/05 14:47:27;;;;;;;2.63;0.98;;;27.50;99.90;;;;;;6151166;23;20426;-70
2023/09/05 14:49:53;;;;;;;2.53;1.35;;;27.60;99.90;;;;;;6151035;23;20023;-70
2023/09/05 14:52:20;;;;;;;3.60;1.13;;;27.50;99.90;;;;;;6100371;23;20098;-70